SAS221 ENGM-ENCN
Flight info
| Callsign | SAS221 |
|---|---|
| Flight time | 0h 36m |
| Altitude | 30000 |
| Route | VIPPA DCT OSVAL |
| Aircraft | A20N/M-SDE3FGIJ1RWXY/ALB1 |
Departure
| Time | 2026-05-05 18:03 |
|---|---|
| Airport | Oslo-Gardermoen International Airport (ENGM) |
Arrival
| Time | 2026-05-05 18:39 |
|---|---|
| Airport | Kristiansand Airport (ENCN) |
| Time | Latitude | Longitude | Altitude | Speed | Heading |
|---|---|---|---|---|---|
| 2026-05-05 17:45 | 60.19680 | 11.10227 | 681 ft | 0 kts | 285° |
| 2026-05-05 17:52 | 60.19677 | 11.10245 | 681 ft | 4 kts | 286° |
| 2026-05-05 17:52 | 60.19670 | 11.10298 | 681 ft | 4 kts | 286° |
| 2026-05-05 17:52 | 60.19666 | 11.10327 | 681 ft | 0 kts | 286° |
| 2026-05-05 17:55 | 60.19666 | 11.10324 | 681 ft | 1 kts | 284° |
| 2026-05-05 17:55 | 60.19658 | 11.10313 | 678 ft | 2 kts | 206° |
| 2026-05-05 17:56 | 60.19643 | 11.10341 | 679 ft | 6 kts | 134° |
| 2026-05-05 17:56 | 60.19609 | 11.10440 | 681 ft | 11 kts | 116° |
| 2026-05-05 17:56 | 60.19587 | 11.10618 | 681 ft | 15 kts | 97° |
| 2026-05-05 17:56 | 60.19555 | 11.10800 | 682 ft | 10 kts | 108° |
| 2026-05-05 17:57 | 60.19535 | 11.10944 | 677 ft | 12 kts | 105° |
| 2026-05-05 17:57 | 60.19510 | 11.11121 | 683 ft | 14 kts | 106° |
| 2026-05-05 17:57 | 60.19484 | 11.11268 | 682 ft | 9 kts | 124° |
| 2026-05-05 17:57 | 60.19419 | 11.11283 | 680 ft | 12 kts | 197° |
| 2026-05-05 17:58 | 60.19330 | 11.11229 | 681 ft | 15 kts | 196° |
| 2026-05-05 17:58 | 60.19221 | 11.11167 | 683 ft | 17 kts | 196° |
| 2026-05-05 17:58 | 60.19098 | 11.11099 | 684 ft | 19 kts | 195° |
| 2026-05-05 17:58 | 60.18971 | 11.11022 | 682 ft | 20 kts | 197° |
| 2026-05-05 17:59 | 60.18833 | 11.10945 | 683 ft | 21 kts | 198° |
| 2026-05-05 17:59 | 60.18691 | 11.10860 | 681 ft | 21 kts | 196° |
| 2026-05-05 17:59 | 60.18545 | 11.10776 | 682 ft | 22 kts | 196° |
| 2026-05-05 17:59 | 60.18405 | 11.10695 | 682 ft | 21 kts | 196° |
| 2026-05-05 18:00 | 60.18259 | 11.10611 | 680 ft | 22 kts | 195° |
| 2026-05-05 18:00 | 60.18106 | 11.10522 | 676 ft | 23 kts | 196° |
| 2026-05-05 18:00 | 60.17955 | 11.10434 | 680 ft | 22 kts | 195° |
| 2026-05-05 18:00 | 60.17814 | 11.10355 | 679 ft | 17 kts | 195° |
| 2026-05-05 18:01 | 60.17741 | 11.10380 | 680 ft | 12 kts | 123° |
| 2026-05-05 18:01 | 60.17713 | 11.10551 | 680 ft | 15 kts | 106° |
| 2026-05-05 18:01 | 60.17685 | 11.10756 | 680 ft | 13 kts | 106° |
| 2026-05-05 18:01 | 60.17690 | 11.10848 | 680 ft | 3 kts | 28° |
| 2026-05-05 18:02 | 60.17700 | 11.10853 | 680 ft | 0 kts | 16° |
| 2026-05-05 18:02 | 60.17864 | 11.10946 | 679 ft | 62 kts | 16° |
| 2026-05-05 18:02 | 60.18500 | 11.11316 | 678 ft | 126 kts | 16° |
| 2026-05-05 18:02 | 60.19503 | 11.11914 | 775 ft | 165 kts | 14° |
| 2026-05-05 18:03 | 60.20593 | 11.12629 | 1450 ft | 166 kts | 19° |
| 2026-05-05 18:03 | 60.21433 | 11.14229 | 2166 ft | 177 kts | 62° |
| 2026-05-05 18:03 | 60.21732 | 11.16646 | 2842 ft | 184 kts | 78° |
| 2026-05-05 18:03 | 60.21915 | 11.19337 | 3280 ft | 204 kts | 81° |
| 2026-05-05 18:04 | 60.22094 | 11.22359 | 3731 ft | 229 kts | 81° |
| 2026-05-05 18:04 | 60.22301 | 11.25683 | 4410 ft | 248 kts | 81° |
| 2026-05-05 18:04 | 60.22180 | 11.29176 | 5342 ft | 255 kts | 109° |
| 2026-05-05 18:04 | 60.21235 | 11.32181 | 6345 ft | 257 kts | 139° |
| 2026-05-05 18:05 | 60.19714 | 11.33941 | 7288 ft | 257 kts | 164° |
| 2026-05-05 18:05 | 60.17931 | 11.34864 | 7950 ft | 274 kts | 171° |
| 2026-05-05 18:05 | 60.16017 | 11.35242 | 8825 ft | 276 kts | 188° |
| 2026-05-05 18:05 | 60.14176 | 11.34275 | 9865 ft | 273 kts | 208° |
| 2026-05-05 18:06 | 60.12484 | 11.32369 | 10526 ft | 288 kts | 213° |
| 2026-05-05 18:06 | 60.11913 | 11.31712 | 10651 ft | 296 kts | 212° |
| 2026-05-05 18:06 | 60.08739 | 11.28153 | 11466 ft | 326 kts | 212° |
| 2026-05-05 18:06 | 60.06735 | 11.25963 | 12342 ft | 330 kts | 212° |
| 2026-05-05 18:07 | 60.04700 | 11.23757 | 13273 ft | 334 kts | 212° |
| 2026-05-05 18:07 | 60.02639 | 11.21529 | 14108 ft | 337 kts | 213° |
| 2026-05-05 18:07 | 60.00574 | 11.19301 | 15019 ft | 337 kts | 213° |
| 2026-05-05 18:07 | 59.98505 | 11.17070 | 15911 ft | 337 kts | 214° |
| 2026-05-05 18:08 | 59.96464 | 11.14870 | 16749 ft | 339 kts | 215° |
| 2026-05-05 18:08 | 59.94382 | 11.12623 | 17626 ft | 340 kts | 216° |
| 2026-05-05 18:08 | 59.92295 | 11.10375 | 18424 ft | 342 kts | 216° |
| 2026-05-05 18:08 | 59.90200 | 11.08121 | 19148 ft | 342 kts | 217° |
| 2026-05-05 18:09 | 59.88092 | 11.05855 | 19797 ft | 345 kts | 217° |
| 2026-05-05 18:09 | 59.85980 | 11.03585 | 20486 ft | 346 kts | 218° |
| 2026-05-05 18:09 | 59.83855 | 11.01306 | 21196 ft | 347 kts | 218° |
| 2026-05-05 18:09 | 59.81718 | 10.99015 | 21872 ft | 350 kts | 219° |
| 2026-05-05 18:10 | 59.79567 | 10.96710 | 22553 ft | 352 kts | 219° |
| 2026-05-05 18:10 | 59.77401 | 10.94392 | 23203 ft | 354 kts | 219° |
| 2026-05-05 18:10 | 59.75218 | 10.92058 | 23742 ft | 358 kts | 219° |
| 2026-05-05 18:10 | 59.73015 | 10.89704 | 24250 ft | 361 kts | 219° |
| 2026-05-05 18:11 | 59.70821 | 10.87364 | 24729 ft | 364 kts | 219° |
| 2026-05-05 18:11 | 59.68572 | 10.84970 | 25193 ft | 368 kts | 218° |
| 2026-05-05 18:11 | 59.66309 | 10.82565 | 25670 ft | 371 kts | 218° |
| 2026-05-05 18:11 | 59.64023 | 10.80139 | 26125 ft | 374 kts | 218° |
| 2026-05-05 18:12 | 59.61721 | 10.77700 | 26592 ft | 377 kts | 218° |
| 2026-05-05 18:12 | 59.59400 | 10.75244 | 27028 ft | 380 kts | 218° |
| 2026-05-05 18:12 | 59.57057 | 10.72788 | 27454 ft | 385 kts | 216° |
| 2026-05-05 18:12 | 59.54575 | 10.70632 | 27880 ft | 394 kts | 210° |
| 2026-05-05 18:13 | 59.51926 | 10.68967 | 28288 ft | 405 kts | 204° |
| 2026-05-05 18:13 | 59.50091 | 10.68166 | 28541 ft | 412 kts | 200° |
| 2026-05-05 18:13 | 59.46291 | 10.66852 | 29056 ft | 416 kts | 200° |
| 2026-05-05 18:13 | 59.43438 | 10.65860 | 29435 ft | 418 kts | 200° |
| 2026-05-05 18:14 | 59.41536 | 10.65192 | 29685 ft | 420 kts | 200° |
| 2026-05-05 18:14 | 59.37708 | 10.63837 | 29901 ft | 421 kts | 200° |
| 2026-05-05 18:14 | 59.34827 | 10.62816 | 29902 ft | 421 kts | 200° |
| 2026-05-05 18:15 | 59.30023 | 10.61113 | 30010 ft | 421 kts | 200° |
| 2026-05-05 18:15 | 59.24260 | 10.59072 | 30007 ft | 420 kts | 200° |
| 2026-05-05 18:16 | 59.18494 | 10.57037 | 29990 ft | 421 kts | 200° |
| 2026-05-05 18:16 | 59.12766 | 10.55022 | 29906 ft | 421 kts | 200° |
| 2026-05-05 18:17 | 59.07141 | 10.52378 | 29910 ft | 405 kts | 212° |
| 2026-05-05 18:17 | 59.04706 | 10.49781 | 29909 ft | 393 kts | 223° |
| 2026-05-05 18:17 | 59.02644 | 10.46388 | 29914 ft | 384 kts | 233° |
| 2026-05-05 18:18 | 58.99560 | 10.38171 | 29910 ft | 377 kts | 241° |
| 2026-05-05 18:18 | 58.96637 | 10.29703 | 29912 ft | 378 kts | 241° |
| 2026-05-05 18:19 | 58.93655 | 10.21296 | 29911 ft | 380 kts | 238° |
| 2026-05-05 18:19 | 58.90456 | 10.13107 | 29914 ft | 381 kts | 238° |
| 2026-05-05 18:20 | 58.87279 | 10.04968 | 29916 ft | 381 kts | 238° |
| 2026-05-05 18:20 | 58.84061 | 9.96752 | 29921 ft | 382 kts | 238° |
| 2026-05-05 18:21 | 58.80863 | 9.88619 | 29916 ft | 383 kts | 238° |
| 2026-05-05 18:21 | 58.77619 | 9.80456 | 29909 ft | 384 kts | 237° |
| 2026-05-05 18:22 | 58.74274 | 9.72453 | 29401 ft | 380 kts | 236° |
| 2026-05-05 18:22 | 58.72637 | 9.68557 | 28790 ft | 377 kts | 236° |
| 2026-05-05 18:22 | 58.70996 | 9.64646 | 28078 ft | 372 kts | 236° |
| 2026-05-05 18:22 | 58.69381 | 9.60794 | 27104 ft | 367 kts | 236° |
| 2026-05-05 18:23 | 58.67787 | 9.56988 | 26175 ft | 363 kts | 236° |
| 2026-05-05 18:23 | 58.66212 | 9.53231 | 25286 ft | 359 kts | 236° |
| 2026-05-05 18:23 | 58.64649 | 9.49509 | 24421 ft | 355 kts | 236° |
| 2026-05-05 18:23 | 58.63107 | 9.45842 | 23576 ft | 351 kts | 236° |
| 2026-05-05 18:24 | 58.61581 | 9.42219 | 22643 ft | 346 kts | 236° |
| 2026-05-05 18:24 | 58.60084 | 9.38670 | 21872 ft | 344 kts | 236° |
| 2026-05-05 18:24 | 58.58583 | 9.35117 | 21278 ft | 340 kts | 236° |
| 2026-05-05 18:24 | 58.57097 | 9.31606 | 20685 ft | 337 kts | 236° |
| 2026-05-05 18:25 | 58.55636 | 9.28156 | 19887 ft | 339 kts | 236° |
| 2026-05-05 18:25 | 58.54623 | 9.25759 | 19199 ft | 346 kts | 236° |
| 2026-05-05 18:25 | 58.52618 | 9.21036 | 18448 ft | 341 kts | 236° |
| 2026-05-05 18:25 | 58.51136 | 9.17566 | 17975 ft | 334 kts | 236° |
| 2026-05-05 18:26 | 58.49679 | 9.14152 | 17424 ft | 328 kts | 236° |
| 2026-05-05 18:26 | 58.48259 | 9.10824 | 16877 ft | 324 kts | 236° |
| 2026-05-05 18:26 | 58.46839 | 9.07502 | 16347 ft | 320 kts | 236° |
| 2026-05-05 18:26 | 58.45432 | 9.04212 | 15816 ft | 317 kts | 236° |
| 2026-05-05 18:27 | 58.44039 | 9.00958 | 15285 ft | 315 kts | 236° |
| 2026-05-05 18:27 | 58.42653 | 8.97728 | 14756 ft | 313 kts | 235° |
| 2026-05-05 18:27 | 58.41286 | 8.94544 | 14235 ft | 312 kts | 235° |
| 2026-05-05 18:27 | 58.39915 | 8.91353 | 13710 ft | 311 kts | 234° |
| 2026-05-05 18:28 | 58.37176 | 8.85003 | 12631 ft | 307 kts | 234° |
| 2026-05-05 18:28 | 58.35824 | 8.81875 | 12114 ft | 305 kts | 234° |
| 2026-05-05 18:28 | 58.34494 | 8.78803 | 11610 ft | 303 kts | 234° |
| 2026-05-05 18:29 | 58.33148 | 8.75697 | 11088 ft | 302 kts | 234° |
| 2026-05-05 18:29 | 58.31810 | 8.72612 | 10573 ft | 302 kts | 234° |
| 2026-05-05 18:29 | 58.30586 | 8.69796 | 10197 ft | 299 kts | 234° |
| 2026-05-05 18:29 | 58.29246 | 8.66719 | 9938 ft | 290 kts | 234° |
| 2026-05-05 18:30 | 58.27992 | 8.63847 | 9680 ft | 282 kts | 234° |
| 2026-05-05 18:30 | 58.26757 | 8.61016 | 9405 ft | 274 kts | 234° |
| 2026-05-05 18:30 | 58.25556 | 8.58266 | 9125 ft | 267 kts | 234° |
| 2026-05-05 18:30 | 58.24360 | 8.55523 | 8850 ft | 271 kts | 234° |
| 2026-05-05 18:31 | 58.23158 | 8.52772 | 8571 ft | 268 kts | 233° |
| 2026-05-05 18:31 | 58.21967 | 8.50048 | 8325 ft | 269 kts | 233° |
| 2026-05-05 18:31 | 58.20784 | 8.47350 | 8006 ft | 269 kts | 233° |
| 2026-05-05 18:31 | 58.19577 | 8.44598 | 7550 ft | 272 kts | 232° |
| 2026-05-05 18:32 | 58.18364 | 8.41837 | 7110 ft | 272 kts | 232° |
| 2026-05-05 18:32 | 58.17157 | 8.39095 | 6599 ft | 269 kts | 232° |
| 2026-05-05 18:32 | 58.15976 | 8.36417 | 6178 ft | 262 kts | 232° |
| 2026-05-05 18:32 | 58.14830 | 8.33828 | 6003 ft | 245 kts | 232° |
| 2026-05-05 18:33 | 58.13774 | 8.31444 | 5856 ft | 227 kts | 232° |
| 2026-05-05 18:33 | 58.12807 | 8.29260 | 5707 ft | 211 kts | 232° |
| 2026-05-05 18:33 | 58.11890 | 8.27192 | 5559 ft | 200 kts | 232° |
| 2026-05-05 18:33 | 58.10963 | 8.25252 | 5288 ft | 199 kts | 229° |
| 2026-05-05 18:34 | 58.10024 | 8.23340 | 5043 ft | 196 kts | 230° |
| 2026-05-05 18:34 | 58.09111 | 8.21457 | 5000 ft | 199 kts | 230° |
| 2026-05-05 18:34 | 58.08189 | 8.19485 | 4780 ft | 200 kts | 237° |
| 2026-05-05 18:34 | 58.07524 | 8.17159 | 4298 ft | 206 kts | 253° |
| 2026-05-05 18:35 | 58.07248 | 8.14474 | 3795 ft | 211 kts | 270° |
| 2026-05-05 18:35 | 58.07403 | 8.11696 | 3335 ft | 214 kts | 287° |
| 2026-05-05 18:35 | 58.07967 | 8.09167 | 2864 ft | 204 kts | 303° |
| 2026-05-05 18:35 | 58.08835 | 8.07148 | 2381 ft | 193 kts | 319° |
| 2026-05-05 18:36 | 58.09881 | 8.05748 | 2051 ft | 175 kts | 332° |
| 2026-05-05 18:36 | 58.10944 | 8.04965 | 1787 ft | 159 kts | 344° |
| 2026-05-05 18:36 | 58.11969 | 8.04549 | 1626 ft | 141 kts | 347° |
| 2026-05-05 18:36 | 58.12895 | 8.04238 | 1513 ft | 132 kts | 347° |
| 2026-05-05 18:37 | 58.13776 | 8.03802 | 1472 ft | 131 kts | 342° |
| 2026-05-05 18:37 | 58.14675 | 8.03416 | 1413 ft | 133 kts | 347° |
| 2026-05-05 18:37 | 58.15595 | 8.03232 | 1340 ft | 134 kts | 0° |
| 2026-05-05 18:37 | 58.16504 | 8.03619 | 1139 ft | 135 kts | 16° |
| 2026-05-05 18:38 | 58.17347 | 8.04426 | 841 ft | 137 kts | 30° |
| 2026-05-05 18:38 | 58.18100 | 8.05489 | 613 ft | 134 kts | 30° |
| 2026-05-05 18:38 | 58.18868 | 8.06497 | 356 ft | 133 kts | 28° |
| 2026-05-05 18:38 | 58.19610 | 8.07473 | 125 ft | 131 kts | 28° |
| 2026-05-05 18:39 | 58.20318 | 8.08392 | 66 ft | 95 kts | 35° |
| 2026-05-05 18:39 | 58.20611 | 8.08795 | 61 ft | 14 kts | 37° |
| 2026-05-05 18:39 | 58.20658 | 8.08889 | 62 ft | 8 kts | 49° |
| 2026-05-05 18:39 | 58.20678 | 8.08881 | 62 ft | 2 kts | 265° |
| 2026-05-05 18:40 | 58.20650 | 8.08844 | 61 ft | 10 kts | 214° |
| 2026-05-05 18:40 | 58.20566 | 8.08730 | 64 ft | 18 kts | 215° |
| 2026-05-05 18:40 | 58.20460 | 8.08588 | 66 ft | 17 kts | 215° |
| 2026-05-05 18:40 | 58.20419 | 8.08446 | 65 ft | 14 kts | 276° |
| 2026-05-05 18:41 | 58.20462 | 8.08295 | 61 ft | 9 kts | 303° |
| 2026-05-05 18:41 | 58.20474 | 8.08165 | 62 ft | 12 kts | 249° |
| 2026-05-05 18:41 | 58.20419 | 8.08023 | 63 ft | 15 kts | 232° |
| 2026-05-05 18:41 | 58.20350 | 8.07858 | 60 ft | 16 kts | 232° |
| 2026-05-05 18:42 | 58.20295 | 8.07731 | 66 ft | 8 kts | 219° |
| 2026-05-05 18:42 | 58.20246 | 8.07668 | 59 ft | 5 kts | 211° |
| 2026-05-05 18:42 | 58.20234 | 8.07604 | 62 ft | 7 kts | 291° |
| 2026-05-05 18:42 | 58.20244 | 8.07572 | 62 ft | 2 kts | 302° |
| 2026-05-05 18:43 | 58.20246 | 8.07566 | 64 ft | 0 kts | 301° |